Flight Track Log - Related Links

Times and Time Zones

All times are in EDT time to prevent confusion due to time zone crossing. See the VOZ735 flight status page for this flight to view local times or setup timezone preferences in your user account.

Time Position Orientation Groundspeed Altitude Reporting Facility
EDT Latitude Longitude Course Direction KTS MPH feet Rate Location/Type
Thu 08:50:08 PM -37.6600 144.8360 351° North 127 146 1,800  Level FlightAware ADS-B
Thu 08:50:17 PM -37.6543 144.8349 352° North 123 142 2,300 1,920 Climbing Aus ATC (RADAR)
Thu 08:50:33 PM -37.6440 144.8330 352° North 158 182 2,600 2,318 Climbing FlightAware ADS-B
Thu 08:51:01 PM -37.6230 144.8290 351° North 172 198 4,000 3,000 Climbing FlightAware ADS-B
Thu 08:51:21 PM -37.6080 144.8270 354° North 181 208 5,000 2,893 Climbing FlightAware ADS-B
Thu 08:51:57 PM -37.5780 144.8340 10° North 211 243 6,700 2,933 Climbing FlightAware ADS-B
Thu 08:52:06 PM -37.5690 144.8440 41° Northeast 232 267 7,200 3,517 Climbing FlightAware ADS-B
Thu 08:52:26 PM -37.5510 144.8630 40° Northeast 244 281 8,400 3,600 Climbing FlightAware ADS-B
Thu 08:52:46 PM -37.5320 144.8810 37° Northeast 251 289 9,600 2,836 Climbing FlightAware ADS-B
Thu 08:53:21 PM -37.4990 144.9140 38° Northeast 287 330 11,000 2,585 Climbing FlightAware ADS-B
Thu 08:53:51 PM -37.4660 144.9470 38° Northeast 304 350 12,400 2,800 Climbing FlightAware ADS-B
Thu 08:54:36 PM -37.4140 144.9980 38° Northeast 327 376 14,500 2,960 Climbing FlightAware ADS-B
Thu 08:55:06 PM -37.3767 145.0346 38° Northeast 331 381 16,100 3,086 Climbing Aus ATC (RADAR)
Thu 08:55:11 PM -37.3720 145.0400 38° Northeast 336 387 16,300 2,700 Climbing FlightAware ADS-B
Thu 08:55:46 PM -37.3290 145.0820 38° Northeast 345 397 17,900 2,657 Climbing FlightAware ADS-B
Thu 08:56:21 PM -37.2830 145.1280 39° Northeast 357 411 19,400 2,571 Climbing FlightAware ADS-B
Thu 08:56:56 PM -37.2400 145.1710 39° Northeast 364 419 20,900 2,486 Climbing FlightAware ADS-B
Thu 08:57:31 PM -37.1910 145.2190 38° Northeast 375 432 22,300 2,229 Climbing FlightAware ADS-B
Thu 08:58:06 PM -37.1420 145.2670 38° Northeast 391 450 23,500 2,031 Climbing FlightAware ADS-B
Thu 08:58:36 PM -37.0973 145.3107 38° Northeast 397 457 24,500 1,886 Climbing Aus ATC (RADAR)
Thu 08:58:41 PM -37.0920 145.3160 38° Northeast 402 463 24,600 2,100 Climbing FlightAware ADS-B
Thu 08:59:16 PM -37.0384 145.3688 38° Northeast 407 468 25,900 2,057 Climbing Aus ATC (RADAR)
Thu 08:59:16 PM -37.0400 145.3680 38° Northeast 409 471 25,800 1,714 Descending FlightAware ADS-B
Thu 08:59:51 PM -36.9880 145.4180 38° Northeast 417 480 26,900 1,800 Climbing FlightAware ADS-B
Thu 09:00:26 PM -36.9360 145.4690 38° Northeast 423 487 27,900 1,754 Climbing FlightAware ADS-B
Thu 09:00:56 PM -36.8857 145.5181 38° Northeast 426 490 28,800 1,800 Climbing Aus ATC (RADAR)
Thu 09:01:06 PM -36.8710 145.5330 38° Northeast 432 497 29,100 1,440 Climbing FlightAware ADS-B
Thu 09:01:46 PM -36.8090 145.5930 38° Northeast 441 507 30,000 1,360 Climbing FlightAware ADS-B
Thu 09:02:21 PM -36.7500 145.6500 38° Northeast 452 520 30,800 1,292 Climbing FlightAware ADS-B
Thu 09:02:51 PM -36.6993 145.6989 38° Northeast 455 524 31,400 1,167 Climbing Aus ATC (RADAR)
Thu 09:02:57 PM -36.6910 145.7070 38° Northeast 455 524 31,500 1,174 Climbing FlightAware ADS-B
Thu 09:03:37 PM -36.6240 145.7720 38° Northeast 466 536 32,300 1,352 Climbing FlightAware ADS-B
Thu 09:04:08 PM -36.5710 145.8230 38° Northeast 469 540 33,100 1,481 Climbing FlightAware ADS-B
Thu 09:04:54 PM -36.4930 145.9010 39° Northeast 469 540 34,200 1,244 Climbing FlightAware ADS-B
Thu 09:05:30 PM -36.4290 145.9610 37° Northeast 469 540 34,800 779 Climbing FlightAware ADS-B
Thu 09:06:11 PM -36.3610 146.0260 38° Northeast 487 560 35,200 720 Climbing FlightAware ADS-B
Thu 09:06:45 PM -36.2970 146.0870 38° Northeast 492 566 35,700 943 Climbing FlightAware ADS-B
Thu 09:07:21 PM -36.2310 146.1500 38° Northeast 489 563 36,300 943 Climbing FlightAware ADS-B
Thu 09:07:55 PM -36.1690 146.2090 38° Northeast 492 566 36,800 880 Climbing FlightAware ADS-B
Thu 09:08:36 PM -36.0960 146.2790 38° Northeast 494 568 37,400 880 Climbing FlightAware ADS-B
Thu 09:09:10 PM -36.0320 146.3390 37° Northeast 495 570 37,900 771 Climbing FlightAware ADS-B
Thu 09:09:46 PM -35.9650 146.4030 38° Northeast 504 580 38,300 686 Climbing FlightAware ADS-B
Thu 09:10:20 PM -35.9080 146.4570 38° Northeast 505 581 38,700 600 Climbing FlightAware ADS-B
Thu 09:10:56 PM -35.8350 146.5250 37° Northeast 508 585 39,000 257 Climbing FlightAware ADS-B
Thu 09:11:30 PM -35.7710 146.5860 38° Northeast 509 586 39,000  Level FlightAware ADS-B
Thu 09:12:06 PM -35.7060 146.6470 37° Northeast 508 585 39,000  Level FlightAware ADS-B
Thu 09:12:40 PM -35.6430 146.7070 38° Northeast 507 583 39,000  Level FlightAware ADS-B
Thu 09:13:16 PM -35.5730 146.7710 37° Northeast 508 585 39,000  Level FlightAware ADS-B
Thu 09:13:50 PM -35.5100 146.8310 38° Northeast 509 586 39,000  Level FlightAware ADS-B
Thu 09:14:26 PM -35.4430 146.8930 37° Northeast 511 588 39,000  Level FlightAware ADS-B
Thu 09:15:00 PM -35.3780 146.9560 38° Northeast 514 592 39,000  Level FlightAware ADS-B
Thu 09:15:36 PM -35.3120 147.0200 38° Northeast 516 594 39,000  Level FlightAware ADS-B
Thu 09:16:10 PM -35.2480 147.0840 39° Northeast 516 594 39,000 188 Level FlightAware ADS-B
Thu 09:16:40 PM -35.1908 147.1388 39° Northeast 515 593 39,200  Climbing Aus ATC (RADAR)
Thu 09:16:46 PM -35.1820 147.1480 39° Northeast 517 595 39,000 -267 Descending FlightAware ADS-B
Thu 09:17:25 PM -35.1080 147.2200 39° Northeast 518 596 39,000  Level FlightAware ADS-B
Thu 09:17:55 PM -35.0510 147.2750 38° Northeast 513 590 39,000  Level FlightAware ADS-B
Thu 09:18:30 PM -34.9830 147.3400 38° Northeast 513 590 39,000  Level FlightAware ADS-B
Thu 09:19:05 PM -34.9180 147.4030 38° Northeast 514 592 39,000  Level FlightAware ADS-B
Thu 09:19:42 PM -34.8520 147.4670 39° Northeast 515 593 39,000  Level FlightAware ADS-B
Thu 09:20:16 PM -34.7860 147.5300 38° Northeast 516 594 39,000  Level FlightAware ADS-B
Thu 09:20:51 PM -34.7180 147.5950 38° Northeast 516 594 39,000  Level FlightAware ADS-B
Thu 09:21:32 PM -34.6410 147.6690 38° Northeast 517 595 39,000  Level FlightAware ADS-B
Thu 09:22:06 PM -34.5760 147.7310 38° Northeast 517 595 39,000  Level FlightAware ADS-B
Thu 09:22:47 PM -34.4990 147.8050 38° Northeast 517 595 39,000  Level FlightAware ADS-B
Thu 09:23:17 PM -34.4420 147.8580 37° Northeast 515 593 39,000  Level FlightAware ADS-B
Thu 09:23:52 PM -34.3750 147.9210 37° Northeast 515 593 39,000 324 Level FlightAware ADS-B
Thu 09:23:54 PM -34.3684 147.9283 37° Northeast 518 596 39,200  Climbing Aus ATC (RADAR)
Thu 09:24:31 PM -34.3000 147.9930 38° Northeast 516 594 39,000 -164 Descending FlightAware ADS-B
Thu 09:25:07 PM -34.2320 148.0570 38° Northeast 516 594 39,000  Level FlightAware ADS-B
Thu 09:25:36 PM -34.1760 148.1100 38° Northeast 517 595 39,000  Level FlightAware ADS-B
Thu 09:26:13 PM -34.1090 148.1730 38° Northeast 519 597 39,000 308 Level FlightAware ADS-B
Thu 09:26:15 PM -34.1014 148.1794 38° Northeast 520 598 39,200  Climbing Aus ATC (RADAR)
Thu 09:26:51 PM -34.0320 148.2450 38° Northeast 527 606 39,000 -179 Descending FlightAware ADS-B
Thu 09:27:22 PM -33.9740 148.3000 38° Northeast 528 608 39,000  Level FlightAware ADS-B
Thu 09:28:01 PM -33.8970 148.3710 37° Northeast 530 610 39,000  Level FlightAware ADS-B
Thu 09:28:37 PM -33.8280 148.4350 38° Northeast 532 612 39,000  Level FlightAware ADS-B
Thu 09:29:06 PM -33.7700 148.4890 38° Northeast 533 613 39,000  Level FlightAware ADS-B
Thu 09:29:46 PM -33.6910 148.5630 38° Northeast 529 609 39,000  Level FlightAware ADS-B
Thu 09:30:21 PM -33.6240 148.6250 38° Northeast 531 611 39,000  Level FlightAware ADS-B
Thu 09:30:52 PM -33.5640 148.6810 38° Northeast 534 615 39,000  Level FlightAware ADS-B
Thu 09:31:31 PM -33.4860 148.7530 38° Northeast 534 615 39,000  Level FlightAware ADS-B
Thu 09:32:02 PM -33.4260 148.8080 37° Northeast 534 615 39,000  Level FlightAware ADS-B
Thu 09:32:36 PM -33.3560 148.8720 37° Northeast 534 615 39,000  Level FlightAware ADS-B
Thu 09:33:12 PM -33.2860 148.9360 37° Northeast 534 615 39,000 174 Level FlightAware ADS-B
Thu 09:33:45 PM -33.2169 148.9992 37° Northeast 541 623 39,200  Climbing Aus ATC (RADAR)
Thu 09:33:46 PM -33.2190 148.9970 37° Northeast 536 617 39,000 -324 Descending FlightAware ADS-B
Thu 09:34:22 PM -33.1460 149.0640 38° Northeast 543 625 39,000  Level FlightAware ADS-B
Thu 09:35:01 PM -33.0700 149.1340 38° Northeast 543 625 39,000  Level FlightAware ADS-B
Thu 09:35:37 PM -32.9990 149.1990 38° Northeast 536 617 39,000  Level FlightAware ADS-B
Thu 09:36:13 PM -32.9380 149.2540 37° Northeast 542 624 39,000  Level FlightAware ADS-B
Thu 09:36:52 PM -32.8490 149.3350 37° Northeast 542 624 39,000  Level FlightAware ADS-B
Thu 09:37:27 PM -32.7770 149.4000 37° Northeast 533 613 39,000  Level FlightAware ADS-B
Thu 09:37:57 PM -32.7160 149.4540 37° Northeast 534 615 39,000  Level FlightAware ADS-B
Thu 09:38:37 PM -32.6370 149.5250 37° Northeast 542 624 39,000  Level FlightAware ADS-B
Thu 09:39:12 PM -32.5680 149.5880 38° Northeast 542 624 39,000  Level FlightAware ADS-B
Thu 09:39:52 PM -32.4870 149.6580 36° Northeast 531 611 39,000  Level FlightAware ADS-B
Thu 09:40:27 PM -32.4180 149.7140 34° Northeast 530 610 39,000  Level FlightAware ADS-B
Thu 09:41:02 PM -32.3430 149.7760 35° Northeast 531 611 39,000  Level FlightAware ADS-B
Thu 09:41:37 PM -32.2740 149.8350 36° Northeast 538 619 39,000  Level FlightAware ADS-B
Thu 09:42:17 PM -32.1930 149.9020 35° Northeast 538 619 39,000  Level FlightAware ADS-B
Thu 09:42:54 PM -32.1240 149.9600 35° Northeast 537 618 39,000 176 Level FlightAware ADS-B
Thu 09:43:25 PM -32.0525 150.0198 35° Northeast 536 617 39,200  Climbing Aus ATC (RADAR)
Thu 09:43:32 PM -32.0430 150.0270 35° Northeast 531 611 39,000 -255 Descending FlightAware ADS-B
Thu 09:44:12 PM -31.9600 150.0970 36° Northeast 531 611 39,000  Level FlightAware ADS-B
Thu 09:44:57 PM -31.8720 150.1700 35° Northeast 531 611 39,000  Level FlightAware ADS-B
Thu 09:45:27 PM -31.8040 150.2260 35° Northeast 531 611 39,000  Level FlightAware ADS-B
Thu 09:46:04 PM -31.7340 150.2840 35° Northeast 537 618 39,000  Level FlightAware ADS-B
Thu 09:46:43 PM -31.6520 150.3510 35° Northeast 531 611 39,000  Level FlightAware ADS-B
Thu 09:47:13 PM -31.5890 150.4030 35° Northeast 533 613 39,000 200 Level FlightAware ADS-B
Thu 09:47:43 PM -31.5280 150.4525 35° Northeast 531 611 39,200  Climbing Aus ATC (RADAR)
Thu 09:47:53 PM -31.5080 150.4700 35° Northeast 533 613 39,000 -300 Descending FlightAware ADS-B
Thu 09:48:23 PM -31.4470 150.5200 35° Northeast 533 613 39,000  Level FlightAware ADS-B
Thu 09:48:58 PM -31.3750 150.5790 35° Northeast 533 613 39,000  Level FlightAware ADS-B
Thu 09:49:33 PM -31.3050 150.6360 35° Northeast 531 611 39,000  Level FlightAware ADS-B
Thu 09:50:03 PM -31.2500 150.6810 35° Northeast 529 609 39,000  Level FlightAware ADS-B
Thu 09:50:43 PM -31.1610 150.7530 35° Northeast 533 613 39,000 132 Level FlightAware ADS-B
Thu 09:51:34 PM -31.0582 150.8416 35° Northeast 534 615 39,200  Climbing Aus ATC (RADAR)
Thu 09:51:34 PM -31.0720 150.8240 35° Northeast 532 612 39,000 -414 Descending FlightAware ADS-B
Thu 09:52:03 PM -31.0060 150.9040 46° Northeast 546 628 39,000  Level FlightAware ADS-B
Thu 09:52:42 PM -30.9490 150.9750 47° Northeast 546 628 39,000 160 Level FlightAware ADS-B
Thu 09:53:18 PM -30.8766 151.0610 47° Northeast 538 619 39,200  Climbing Aus ATC (RADAR)
Thu 09:53:18 PM -30.8960 151.0410 47° Northeast 546 628 39,000  Descending FlightAware ADS-B
Thu 09:53:48 PM -30.8236 151.1251 47° Northeast 539 620 39,200  Climbing Aus ATC (RADAR)
Thu 09:53:54 PM -30.8430 151.1070 47° Northeast 546 628 39,000 -286 Descending FlightAware ADS-B
Thu 09:54:30 PM -30.7910 151.1730 47° Northeast 546 628 39,000 174 Level FlightAware ADS-B
Thu 09:55:03 PM -30.6908 151.2855 47° Northeast 540 621 39,200  Climbing Aus ATC (RADAR)
Thu 09:55:07 PM -30.7360 151.2410 47° Northeast 546 628 39,000 -286 Descending FlightAware ADS-B
Thu 09:55:45 PM -30.6300 151.3610 44° Northeast 554 638 39,000 169 Level FlightAware ADS-B
Thu 09:56:18 PM -30.5577 151.4461 44° Northeast 543 625 39,200  Climbing Aus ATC (RADAR)
Thu 09:56:22 PM -30.5490 151.4580 44° Northeast 555 639 39,000  Descending FlightAware ADS-B
Thu 09:56:52 PM -30.4959 151.5208 44° Northeast 539 620 39,200  Climbing Aus ATC (RADAR)
Thu 09:57:16 PM -30.4640 151.5610 44° Northeast 555 639 39,000 -200 Descending FlightAware ADS-B
Thu 09:57:52 PM -30.3900 151.6500 46° Northeast 554 638 39,000  Level FlightAware ADS-B
Thu 09:58:27 PM -30.3350 151.7150 46° Northeast 554 638 39,000 240 Level FlightAware ADS-B
Thu 09:59:07 PM -30.2556 151.8085 46° Northeast 537 618 39,300  Climbing Aus ATC (RADAR)
Thu 09:59:09 PM -30.2640 151.8000 46° Northeast 554 638 39,000 -439 Descending FlightAware ADS-B
Thu 09:59:48 PM -30.1870 151.8920 46° Northeast 554 638 39,000 409 Level FlightAware ADS-B
Thu 09:59:53 PM -30.1713 151.9089 46° Northeast 555 639 39,300 600 Climbing Aus ATC (RADAR)
Thu 10:00:18 PM -30.1269 151.9621 46° Northeast 554 638 39,300 -621 Level Aus ATC (RADAR)
Thu 10:00:22 PM -30.1220 151.9690 46° Northeast 554 638 39,000 -409 Descending FlightAware ADS-B
Thu 10:01:02 PM -30.0510 152.0540 46° Northeast 553 636 39,000  Level FlightAware ADS-B
Thu 10:01:37 PM -29.9890 152.1270 46° Northeast 553 636 39,000  Level FlightAware ADS-B
Thu 10:02:07 PM -29.9410 152.1840 46° Northeast 552 635 39,000 254 Level FlightAware ADS-B
Thu 10:02:48 PM -29.8603 152.2788 46° Northeast 552 635 39,300  Climbing Aus ATC (RADAR)
Thu 10:02:54 PM -29.8540 152.2860 46° Northeast 552 635 39,000 -1,692 Descending FlightAware ADS-B
Thu 10:03:27 PM -29.7920 152.3590 46° Northeast 552 635 38,200 -1,105 Descending FlightAware ADS-B
Thu 10:03:32 PM -29.7833 152.3683 46° Northeast 532 612 38,300 -2,700 Climbing Aus ATC (RADAR)
Thu 10:04:07 PM -29.7200 152.4440 46° Northeast 557 641 36,400 -3,138 Descending FlightAware ADS-B
Thu 10:04:37 PM -29.6660 152.5070 45° Northeast 564 649 34,900 -2,954 Descending FlightAware ADS-B
Thu 10:05:12 PM -29.6020 152.5830 46° Northeast 568 654 33,200 -2,829 Descending FlightAware ADS-B
Thu 10:05:47 PM -29.5360 152.6590 45° Northeast 566 651 31,600 -2,143 Descending FlightAware ADS-B
Thu 10:06:22 PM -29.4730 152.7320 45° Northeast 546 628 30,700 -1,703 Descending FlightAware ADS-B
Thu 10:07:01 PM -29.4040 152.8140 46° Northeast 524 603 29,500 -1,739 Descending FlightAware ADS-B
Thu 10:07:31 PM -29.3560 152.8700 45° Northeast 509 586 28,700 -2,000 Descending FlightAware ADS-B
Thu 10:08:07 PM -29.2970 152.9380 45° Northeast 501 577 27,300 -2,320 Descending FlightAware ADS-B
Thu 10:08:46 PM -29.2320 153.0130 45° Northeast 488 562 25,800 -2,000 Descending FlightAware ADS-B
Thu 10:09:16 PM -29.1890 153.0620 45° Northeast 470 541 25,000 -1,662 Descending FlightAware ADS-B
Thu 10:09:51 PM -29.1320 153.1270 45° Northeast 451 519 24,000 -2,028 Descending FlightAware ADS-B
Thu 10:10:27 PM -29.0810 153.1860 45° Northeast 445 512 22,600 -2,240 Descending FlightAware ADS-B
Thu 10:11:06 PM -29.0300 153.2460 46° Northeast 433 498 21,200 -2,127 Descending FlightAware ADS-B
Thu 10:11:46 PM -28.9740 153.3100 45° Northeast 417 480 19,800 -2,320 Descending FlightAware ADS-B
Thu 10:12:21 PM -28.9210 153.3700 45° Northeast 414 476 18,300 -2,282 Descending FlightAware ADS-B
Thu 10:12:57 PM -28.8770 153.4210 45° Northeast 405 466 17,100 -2,031 Descending FlightAware ADS-B
Thu 10:13:26 PM -28.8360 153.4690 46° Northeast 395 455 16,100 -1,920 Descending FlightAware ADS-B
Thu 10:14:12 PM -28.7850 153.5380 50° Northeast 380 437 14,700 -1,630 Descending FlightAware ADS-B
Thu 10:14:47 PM -28.7470 153.5940 52° Northeast 362 417 13,900 -1,543 Descending FlightAware ADS-B
Thu 10:15:22 PM -28.7130 153.6430 52° Northeast 353 406 12,900 -1,231 Descending FlightAware ADS-B
Thu 10:15:26 PM -28.7080 153.6493 52° Northeast 338 389 13,100 -1,941 Climbing Aus ATC (RADAR)
Thu 10:15:56 PM -28.6800 153.6900 51° Northeast 351 404 11,800 -2,348 Descending FlightAware ADS-B
Thu 10:16:12 PM -28.6560 153.7120 39° Northeast 346 398 11,300 -1,615 Descending FlightAware ADS-B
Thu 10:16:22 PM -28.6410 153.7180 19° North 339 390 11,100 -750 Descending FlightAware ADS-B
Thu 10:16:52 PM -28.5939 153.7224 19° North 342 394 10,800  Descending Aus ATC (RADAR)
Thu 10:17:02 PM -28.5890 153.7310 19° North 339 390 11,100 409 Climbing FlightAware ADS-B
Thu 10:17:36 PM -28.5450 153.7430 13° North 339 390 11,100 -1,700 Level FlightAware ADS-B
Thu 10:18:02 PM -28.4890 153.7140 336° Northwest 329 379 9,400 -2,571 Descending FlightAware ADS-B
Thu 10:18:39 PM -28.4390 153.7080 354° North 322 371 8,400 -1,920 Descending FlightAware ADS-B
Thu 10:18:52 PM -28.4130 153.7060 356° North 321 369 7,800 -2,270 Descending FlightAware ADS-B
Thu 10:19:16 PM -28.3760 153.7020 355° North 317 365 7,000 -1,765 Descending FlightAware ADS-B
Thu 10:19:26 PM -28.3630 153.7010 356° North 316 364 6,800 -1,667 Descending FlightAware ADS-B
Thu 10:19:52 PM -28.3260 153.6980 356° North 312 359 6,000 -1,714 Descending FlightAware ADS-B
Thu 10:20:08 PM -28.3060 153.6960 355° North 308 354 5,600 -1,588 Descending FlightAware ADS-B
Thu 10:20:26 PM -28.2800 153.6900 349° North 297 342 5,100 -1,125 Descending FlightAware ADS-B
Thu 10:20:40 PM -28.2640 153.6830 339° North 287 330 5,000 -529 Descending FlightAware ADS-B
Thu 10:21:00 PM -28.2370 153.6680 334° Northwest 270 311 4,800 -563 Descending FlightAware ADS-B
Thu 10:21:12 PM -28.2240 153.6610 335° Northwest 267 307 4,700 -585 Descending FlightAware ADS-B
Thu 10:21:41 PM -28.1940 153.6440 333° Northwest 252 290 4,400 -612 Descending FlightAware ADS-B
Thu 10:22:01 PM -28.1720 153.6320 334° Northwest 233 268 4,200 -585 Descending FlightAware ADS-B
Thu 10:22:22 PM -28.1510 153.6200 333° Northwest 230 265 4,000 -714 Descending FlightAware ADS-B
Thu 10:22:43 PM -28.1310 153.6090 334° Northwest 222 255 3,700 -840 Descending FlightAware ADS-B
Thu 10:23:12 PM -28.1080 153.5930 328° Northwest 207 238 3,300 -1,059 Descending FlightAware ADS-B
Thu 10:23:17 PM -28.1050 153.5860 296° West 208 239 3,100 -1,500 Descending FlightAware ADS-B
Thu 10:23:28 PM -28.1010 153.5760 294° West 209 241 2,900 -1,111 Descending FlightAware ADS-B
Thu 10:23:44 PM -28.0950 153.5590 292° West 209 241 2,600 -1,105 Descending FlightAware ADS-B
Thu 10:24:06 PM -28.0870 153.5370 292° West 195 224 2,200 -1,077 Descending FlightAware ADS-B
Thu 10:24:23 PM -28.0810 153.5210 293° West 188 216 1,900 -947 Descending FlightAware ADS-B
Thu 10:24:44 PM -28.0770 153.5010 283° West 185 213 1,600 -649 Descending FlightAware ADS-B
Thu 10:25:00 PM -28.0750 153.4870 279° West 177 204 1,500 -143 Descending FlightAware ADS-B
Thu 10:25:26 PM -28.0730 153.4660 276° West 177 204 1,500 -615 Level FlightAware ADS-B
Thu 10:25:39 PM -28.0940 153.4660 180° South 143 165 1,100 -1,029 Descending FlightAware ADS-B
Thu 10:26:01 PM -28.1070 153.4700 165° South 142 163 900 -327 Descending FlightAware ADS-B
Thu 10:26:34 PM -28.1230 153.4800 151° Southeast 135 155 800 -554 Descending FlightAware ADS-B
Thu 10:27:06 PM -28.1456 153.4938 151° Southeast 138 159 300 -938 Descending Aus ATC (RADAR)

Login

Don't have an account? Register now (free) for customized features, flight alerts, and more!